Time;durP1;ratioP1;P1;durP2;ratioP2;P2;SDS_P1;SDS_P2;PMS_P1;PMS_P2;Temp;Humidity;BMP_temperature;BMP_pressure;BME280_temperature;BME280_humidity;BME280_pressure;Samples;Min_cycle;Max_cycle;Signal;HPM_P1;HPM_P2
2022/01/24 00:02:18;;;;;;;;;;;;;;;;;;4908496;29;19930;-88
2022/01/24 00:04:43;;;;;;;;;;;;;;;;;;4924419;29;19929;-85
2022/01/24 00:07:09;;;;;;;;;;;;;;;;;;4931864;29;19930;-82
2022/01/24 00:09:35;;;;;;;;;;;;;;;;;;4924385;29;19941;-84
2022/01/24 00:12:14;;;;;;;;;;;;;;;;;;4931320;29;20043;-86
2022/01/24 00:17:38;;;;;;;;;;;;;;;;;;4863358;28;19934;-78
2022/01/24 00:28:20;;;;;;;;;;;;;;;;;;4928096;29;19938;-76
2022/01/24 00:30:46;;;;;;;;;;;;;;;;;;4929720;29;20021;-76
2022/01/24 00:33:12;;;;;;;;;;;;;;;;;;4913912;29;20005;-76
2022/01/24 00:35:38;;;;;;;;;;;;;;;;;;4945093;29;19969;-76
2022/01/24 00:38:04;;;;;;;;;;;;;;;;;;4923821;29;19922;-77
2022/01/24 00:40:34;;;;;;;;;;;;;;;;;;4927994;29;19922;-76
2022/01/24 00:43:01;;;;;;;;;;;;;;;;;;4923721;29;20351;-76
2022/01/24 00:55:38;;;;;;;;;;;;;;;;;;4927414;29;19927;-77
2022/01/24 00:58:04;;;;;;;;;;;;;;;;;;4924820;29;19953;-77
2022/01/24 01:00:30;;;;;;;;;;;;;;;;;;4928721;29;20425;-77
2022/01/24 01:02:56;;;;;;;;;;;;;;;;;;4915282;29;19922;-76
2022/01/24 01:18:47;;;;;;;;;;;;;;;;;;4929127;29;20380;-76
2022/01/24 01:21:15;;;;;;;;;;;;;;;;;;4933636;29;19922;-76
2022/01/24 01:23:43;;;;;;;;;;;;;;;;;;4912469;29;19923;-76
2022/01/24 01:26:18;;;;;;;;;;;;;;;;;;4933527;29;19929;-76
2022/01/24 01:28:47;;;;;;;;;;;;;;;;;;4934302;29;20273;-77
2022/01/24 01:31:24;;;;;;;;;;;;;;;;;;4934905;29;21311;-76
2022/01/24 01:34:00;;;;;;;;;;;;;;;;;;4927433;29;19923;-76
2022/01/24 01:39:38;;;;;;;;;;;;;;;;;;4927391;28;19930;-76
2022/01/24 01:53:52;;;;;;;;;;;;;;;;;;4911818;29;19922;-76
2022/01/24 01:56:07;;;;;;;;;;;;;;;;;;4925541;29;19945;-76
2022/01/24 01:58:33;;;;;;;;;;;;;;;;;;4933156;29;19923;-76
2022/01/24 02:00:59;;;;;;;;;;;;;;;;;;4955508;28;19923;-77
2022/01/24 02:03:25;;;;;;;;;;;;;;;;;;4924744;29;20016;-76
2022/01/24 02:05:51;;;;;;;;;;;;;;;;;;4925071;29;19930;-76
2022/01/24 02:08:18;;;;;;;;;;;;;;;;;;4928778;29;19926;-76
2022/01/24 02:10:44;;;;;;;;;;;;;;;;;;4934556;29;19941;-77
2022/01/24 02:13:10;;;;;;;;;;;;;;;;;;4952609;28;19998;-76
2022/01/24 02:25:51;;;;;;;;;;;;;;;;;;4926751;29;19954;-76
2022/01/24 02:28:19;;;;;;;;;;;;;;;;;;4932207;29;19923;-76
2022/01/24 02:33:17;;;;;;;;;;;;;;;;;;4933003;29;20361;-76
2022/01/24 02:35:43;;;;;;;;;;;;;;;;;;4916357;29;19929;-77
2022/01/24 02:38:23;;;;;;;;;;;;;;;;;;4927810;29;20018;-78
2022/01/24 02:46:03;;;;;;;;;;;;;;;;;;4935922;29;19926;-76
2022/01/24 02:49:04;;;;;;;;;;;;;;;;;;4934430;29;19936;-76
2022/01/24 02:51:45;;;;;;;;;;;;;;;;;;4929716;29;19923;-77
2022/01/24 02:54:11;;;;;;;;;;;;;;;;;;4929712;29;20433;-76
2022/01/24 02:56:37;;;;;;;;;;;;;;;;;;4929088;29;19922;-76
2022/01/24 02:59:03;;;;;;;;;;;;;;;;;;4933842;29;19936;-76
2022/01/24 03:01:29;;;;;;;;;;;;;;;;;;4933006;29;19966;-76
2022/01/24 03:03:55;;;;;;;;;;;;;;;;;;4932208;29;19930;-76
2022/01/24 03:06:21;;;;;;;;;;;;;;;;;;4932398;29;20343;-76
2022/01/24 03:08:47;;;;;;;;;;;;;;;;;;4927623;29;20389;-77
2022/01/24 03:11:13;;;;;;;;;;;;;;;;;;4948844;29;20361;-76
2022/01/24 03:13:39;;;;;;;;;;;;;;;;;;4917113;29;19922;-76
2022/01/24 03:16:05;;;;;;;;;;;;;;;;;;4919343;29;19933;-77
2022/01/24 03:18:31;;;;;;;;;;;;;;;;;;4917933;29;19930;-76
2022/01/24 03:20:57;;;;;;;;;;;;;;;;;;4913110;29;20267;-75
2022/01/24 03:23:23;;;;;;;;;;;;;;;;;;4933823;29;19922;-76
2022/01/24 03:25:49;;;;;;;;;;;;;;;;;;4923386;29;19927;-76
2022/01/24 03:28:15;;;;;;;;;;;;;;;;;;4933711;29;19926;-75
2022/01/24 03:30:41;;;;;;;;;;;;;;;;;;4911569;29;19950;-76
2022/01/24 03:33:06;;;;;;;;;;;;;;;;;;4933387;29;19977;-76
2022/01/24 03:35:32;;;;;;;;;;;;;;;;;;4944623;29;19930;-75
2022/01/24 03:37:58;;;;;;;;;;;;;;;;;;4928044;29;19922;-75
2022/01/24 03:40:24;;;;;;;;;;;;;;;;;;4926014;29;19969;-76
2022/01/24 03:42:50;;;;;;;;;;;;;;;;;;4932639;29;20064;-75
2022/01/24 03:45:23;;;;;;;;;;;;;;;;;;4948803;29;19993;-76
2022/01/24 03:48:37;;;;;;;;;;;;;;;;;;4933938;29;19922;-76
2022/01/24 03:50:42;;;;;;;;;;;;;;;;;;4921584;29;19923;-76
2022/01/24 03:53:08;;;;;;;;;;;;;;;;;;4928752;29;19944;-76
2022/01/24 03:55:34;;;;;;;;;;;;;;;;;;4928447;29;19923;-76
2022/01/24 03:58:00;;;;;;;;;;;;;;;;;;4927782;29;19986;-78
2022/01/24 04:00:25;;;;;;;;;;;;;;;;;;4928006;29;19965;-76
2022/01/24 04:02:51;;;;;;;;;;;;;;;;;;4943722;29;20433;-76
2022/01/24 04:05:17;;;;;;;;;;;;;;;;;;4944922;29;20368;-76
2022/01/24 04:07:44;;;;;;;;;;;;;;;;;;4927355;29;19930;-76
2022/01/24 04:10:12;;;;;;;;;;;;;;;;;;4928241;29;19929;-75
2022/01/24 04:12:40;;;;;;;;;;;;;;;;;;4911581;29;19980;-76
2022/01/24 04:15:23;;;;;;;;;;;;;;;;;;4924013;29;19922;-76
2022/01/24 04:17:58;;;;;;;;;;;;;;;;;;4909287;29;19927;-76
2022/01/24 04:23:17;;;;;;;;;;;;;;;;;;4925346;29;19933;-75
2022/01/24 04:25:43;;;;;;;;;;;;;;;;;;4927629;29;20010;-75
2022/01/24 04:28:10;;;;;;;;;;;;;;;;;;4927749;29;20012;-75
2022/01/24 04:30:36;;;;;;;;;;;;;;;;;;4926624;29;19930;-75
2022/01/24 04:33:02;;;;;;;;;;;;;;;;;;4944673;29;19926;-76
2022/01/24 04:35:28;;;;;;;;;;;;;;;;;;4921328;29;19978;-75
2022/01/24 04:37:54;;;;;;;;;;;;;;;;;;4921492;29;19927;-76
2022/01/24 04:40:20;;;;;;;;;;;;;;;;;;4943697;29;19954;-75
2022/01/24 04:42:53;;;;;;;;;;;;;;;;;;4926818;29;20355;-75
2022/01/24 04:50:27;;;;;;;;;;;;;;;;;;4926339;29;19933;-76
2022/01/24 04:56:03;;;;;;;;;;;;;;;;;;4914883;29;19930;-76
2022/01/24 04:58:30;;;;;;;18.02;12.38;;;;;;;;;;4949180;29;20371;-76
2022/01/24 05:00:56;;;;;;;19.90;12.85;;;;;;;;;;4931006;28;20050;-76
2022/01/24 05:03:22;;;;;;;20.25;12.93;;;;;;;;;;4935778;29;20059;-76
2022/01/24 05:05:49;;;;;;;;;;;;;;;;;;4932520;29;20052;-76
2022/01/24 05:08:16;;;;;;;;;;;;;;;;;;4947380;28;19948;-76
2022/01/24 05:10:57;;;;;;;17.52;11.82;;;;;;;;;;4915410;29;19985;-76
2022/01/24 05:23:26;;;;;;;17.55;13.32;;;;;;;;;;4926380;29;20103;-75
2022/01/24 05:24:38;;;;;;;;;;;;;;;;;;4933419;29;20135;-75
2022/01/24 05:27:04;;;;;;;;;;;;;;;;;;4936706;29;20337;-75
2022/01/24 05:29:30;;;;;;;;;;;;;;;;;;4933640;29;19930;-75
2022/01/24 05:31:56;;;;;;;;;;;;;;;;;;4919117;29;20358;-76
2022/01/24 05:34:22;;;;;;;;;;;;;;;;;;4933749;29;20378;-75
2022/01/24 05:36:48;;;;;;;;;;;;;;;;;;4936901;29;19926;-75
2022/01/24 05:39:14;;;;;;;22.40;14.63;;;;;;;;;;4929583;29;20013;-76
2022/01/24 05:41:40;;;;;;;23.42;13.35;;;;;;;;;;4922223;29;20066;-75
2022/01/24 05:44:06;;;;;;;;;;;;;;;;;;4928327;29;20150;-75
2022/01/24 05:46:32;;;;;;;20.75;13.43;;;;;;;;;;4929480;29;20358;-75
2022/01/24 05:48:58;;;;;;;;;;;;;;;;;;4934168;29;20438;-76
2022/01/24 05:51:24;;;;;;;;;;;;;;;;;;4935584;29;19930;-76
2022/01/24 05:53:50;;;;;;;;;;;;;;;;;;4935631;29;20286;-76
2022/01/24 05:56:16;;;;;;;20.13;12.95;;;;;;;;;;4934939;29;19933;-78
2022/01/24 05:58:42;;;;;;;19.30;14.30;;;;;;;;;;4906155;29;20079;-75
2022/01/24 06:01:08;;;;;;;;;;;;;;;;;;4913210;29;20496;-74
2022/01/24 06:03:35;;;;;;;;;;;;;;;;;;4929629;29;19956;-75
2022/01/24 06:06:01;;;;;;;19.60;13.15;;;;;;;;;;4918515;29;20009;-77
2022/01/24 06:08:27;;;;;;;20.75;15.07;;;;;;;;;;4934404;29;20066;-80
2022/01/24 06:10:53;;;;;;;;;;;;;;;;;;4953481;28;20047;-74
2022/01/24 06:13:19;;;;;;;;;;;;;;;;;;4927515;29;19936;-74
2022/01/24 06:15:45;;;;;;;18.63;12.70;;;;;;;;;;4926438;29;20397;-75
2022/01/24 06:18:11;;;;;;;;;;;;;;;;;;4945906;29;20058;-75
2022/01/24 06:20:37;;;;;;;19.10;13.23;;;;;;;;;;4928291;29;20506;-75
2022/01/24 06:23:03;;;;;;;;;;;;;;;;;;4946773;29;20051;-74
2022/01/24 06:25:29;;;;;;;;;;;;;;;;;;4951109;29;19986;-74
2022/01/24 06:27:55;;;;;;;;;;;;;;;;;;4933032;29;19970;-74
2022/01/24 06:30:21;;;;;;;;;;;;;;;;;;4927153;29;20345;-75
2022/01/24 06:32:47;;;;;;;21.27;13.05;;;;;;;;;;4947152;29;19926;-75
2022/01/24 06:35:13;;;;;;;;;;;;;;;;;;4926424;29;20083;-75
2022/01/24 06:37:39;;;;;;;;;;;;;;;;;;4932839;29;19961;-76
2022/01/24 06:40:05;;;;;;;;;;;;;;;;;;4927128;29;19934;-77
2022/01/24 06:42:31;;;;;;;;;;;;;;;;;;4931903;29;19932;-76
2022/01/24 06:44:57;;;;;;;;;;;;;;;;;;4951982;29;19930;-76
2022/01/24 06:47:23;;;;;;;;;;;;;;;;;;4929803;29;20362;-77
2022/01/24 06:49:49;;;;;;;;;;;;;;;;;;4933685;29;19930;-77
2022/01/24 06:52:15;;;;;;;19.80;12.68;;;;;;;;;;4948478;29;19977;-77
2022/01/24 06:54:42;;;;;;;18.75;12.63;;;;;;;;;;4922618;29;20035;-77
2022/01/24 06:57:08;;;;;;;;;;;;;;;;;;4919302;29;20494;-77
2022/01/24 06:59:35;;;;;;;;;;;;;;;;;;4929514;29;20009;-77
2022/01/24 07:02:01;;;;;;;;;;;;;;;;;;4936689;29;20366;-77
2022/01/24 07:04:27;;;;;;;19.37;13.10;;;;;;;;;;4935838;29;19929;-77
2022/01/24 07:06:53;;;;;;;;;;;;;;;;;;4922781;28;20389;-76
2022/01/24 07:09:19;;;;;;;20.33;14.00;;;;;;;;;;4913428;29;19934;-77
2022/01/24 07:11:45;;;;;;;;;;;;;;;;;;4932549;29;20111;-76
2022/01/24 07:14:13;;;;;;;;;;;;;;;;;;4950069;29;19922;-76
2022/01/24 07:19:34;;;;;;;;;;;;;;;;;;4868905;29;20324;-76
2022/01/24 07:22:00;;;;;;;;;;;;;;;;;;4929851;29;20017;-76
2022/01/24 07:24:26;;;;;;;;;;;;;;;;;;4948555;29;19929;-76
2022/01/24 07:26:52;;;;;;;;;;;;;;;;;;4952760;29;19923;-76
2022/01/24 07:29:18;;;;;;;;;;;;;;;;;;4947218;29;19928;-76
2022/01/24 07:31:44;;;;;;;;;;;;;;;;;;4929303;29;19977;-74
2022/01/24 07:34:10;;;;;;;;;;;;;;;;;;4923015;29;19970;-75
2022/01/24 07:36:36;;;;;;;;;;;;;;;;;;4925171;29;19931;-76
2022/01/24 07:39:02;;;;;;;34.22;23.05;;;;;;;;;;4921391;29;19930;-75
2022/01/24 07:41:29;;;;;;;;;;;;;;;;;;4921789;29;20058;-75
2022/01/24 07:43:55;;;;;;;21.05;13.55;;;;;;;;;;4921206;29;19942;-74
2022/01/24 07:46:21;;;;;;;18.50;13.30;;;;;;;;;;4921172;29;20082;-73
2022/01/24 07:48:47;;;;;;;;;;;;;;;;;;4923645;29;20138;-75
2022/01/24 07:51:15;;;;;;;;;;;;;;;;;;4925503;29;20022;-74
2022/01/24 07:53:41;;;;;;;;;;;;;;;;;;4907771;29;19958;-75
2022/01/24 07:56:07;;;;;;;;;;;;;;;;;;4940020;29;20292;-76
2022/01/24 07:58:33;;;;;;;;;;;;;;;;;;4940660;29;19923;-76
2022/01/24 08:00:59;;;;;;;;;;;;;;;;;;4920713;29;19980;-76
2022/01/24 08:03:26;;;;;;;;;;;;;;;;;;4918242;29;19990;-75
2022/01/24 08:05:53;;;;;;;;;;;;;;;;;;4939581;29;19926;-75
2022/01/24 08:08:19;;;;;;;18.87;13.30;;;;;;;;;;4938354;28;19978;-74
2022/01/24 08:10:45;;;;;;;;;;;;;;;;;;4938849;29;20310;-77
2022/01/24 08:13:13;;;;;;;;;;;;;;;;;;4939464;29;20343;-77
2022/01/24 08:15:39;;;;;;;;;;;;;;;;;;4918455;29;19922;-75
2022/01/24 08:18:05;;;;;;;;;;;;;;;;;;4935455;29;19926;-77
2022/01/24 08:20:31;;;;;;;;;;;;;;;;;;4921067;29;19970;-75
2022/01/24 08:22:57;;;;;;;;;;;;;;;;;;4928770;29;19930;-76
2022/01/24 08:25:23;;;;;;;;;;;;;;;;;;4940377;29;20309;-75
2022/01/24 08:27:49;;;;;;;23.40;15.80;;;;;;;;;;4910503;29;19926;-76
2022/01/24 08:30:19;;;;;;;23.63;15.50;;;;;;;;;;4910352;29;20069;-75
2022/01/24 08:32:46;;;;;;;;;;;;;;;;;;4941520;29;20042;-74
2022/01/24 08:35:12;;;;;;;;;;;;;;;;;;4927714;29;19929;-75
2022/01/24 08:37:38;;;;;;;;;;;;;;;;;;4927854;29;19923;-74
2022/01/24 08:40:04;;;;;;;;;;;;;;;;;;4937921;29;19976;-74
2022/01/24 08:47:25;;;;;;;;;;;;;;;;;;4938855;29;20017;-75
2022/01/24 08:49:51;;;;;;;;;;;;;;;;;;4922827;29;20342;-77
2022/01/24 08:52:17;;;;;;;;;;;;;;;;;;4923650;29;19930;-76
2022/01/24 08:54:43;;;;;;;;;;;;;;;;;;4904814;29;20012;-76
2022/01/24 08:57:09;;;;;;;;;;;;;;;;;;4915500;29;20033;-75
2022/01/24 08:59:35;;;;;;;;;;;;;;;;;;4920855;29;19942;-76
2022/01/24 09:02:00;;;;;;;;;;;;;;;;;;4916700;29;19926;-76
2022/01/24 09:04:26;;;;;;;;;;;;;;;;;;4904971;29;19973;-75
2022/01/24 09:06:52;;;;;;;;;;;;;;;;;;4920920;29;19922;-78
2022/01/24 09:09:19;;;;;;;;;;;;;;;;;;4927116;29;19926;-78
2022/01/24 09:11:45;;;;;;;;;;;;;;;;;;4926019;29;20228;-78
2022/01/24 09:14:11;;;;;;;;;;;;;;;;;;4916900;29;20037;-78
2022/01/24 09:16:37;;;;;;;;;;;;;;;;;;4901793;29;19929;-77
2022/01/24 09:19:03;;;;;;;;;;;;;;;;;;4919122;29;19996;-77
2022/01/24 09:21:29;;;;;;;;;;;;;;;;;;4923073;29;19942;-79
2022/01/24 09:23:55;;;;;;;;;;;;;;;;;;4922858;29;19931;-78
2022/01/24 09:26:21;;;;;;;;;;;;;;;;;;4921579;29;20471;-78
2022/01/24 09:28:47;;;;;;;;;;;;;;;;;;4922358;29;19935;-77
2022/01/24 09:31:13;;;;;;;;;;;;;;;;;;4928436;29;19981;-78
2022/01/24 09:33:39;;;;;;;;;;;;;;;;;;4918886;29;19923;-78
2022/01/24 09:36:05;;;;;;;;;;;;;;;;;;4908102;29;19978;-78
2022/01/24 09:38:32;;;;;;;;;;;;;;;;;;4923295;29;19934;-78
2022/01/24 09:40:58;;;;;;;;;;;;;;;;;;4923517;29;19970;-77
2022/01/24 09:43:24;;;;;;;;;;;;;;;;;;4922527;29;20380;-78
2022/01/24 09:45:50;;;;;;;;;;;;;;;;;;4926763;29;21576;-78
2022/01/24 09:48:16;;;;;;;;;;;;;;;;;;4909703;29;20323;-78
2022/01/24 09:50:42;;;;;;;;;;;;;;;;;;4924017;29;19942;-78
2022/01/24 09:53:08;;;;;;;;;;;;;;;;;;4924338;29;19926;-78
2022/01/24 09:55:34;;;;;;;;;;;;;;;;;;4924926;29;20416;-79
2022/01/24 09:58:00;;;;;;;;;;;;;;;;;;4931799;29;19930;-78
2022/01/24 10:00:26;;;;;;;;;;;;;;;;;;4922892;29;20281;-77
2022/01/24 10:02:52;;;;;;;;;;;;;;;;;;4919877;29;19919;-77
2022/01/24 10:05:18;;;;;;;;;;;;;;;;;;4936340;29;20366;-77
2022/01/24 10:07:44;;;;;;;;;;;;;;;;;;4921797;29;20385;-78
2022/01/24 10:10:10;;;;;;;;;;;;;;;;;;4921021;29;20013;-77
2022/01/24 10:17:53;;;;;;;;;;;;;;;;;;4926344;29;19978;-77
2022/01/24 10:20:18;;;;;;;;;;;;;;;;;;4938113;29;20346;-77
2022/01/24 10:22:44;;;;;;;;;;;;;;;;;;4919313;29;20335;-77
2022/01/24 10:25:10;;;;;;;;;;;;;;;;;;4921998;29;19962;-76
2022/01/24 10:27:37;;;;;;;;;;;;;;;;;;4925272;29;19922;-76
2022/01/24 10:30:03;;;;;;;;;;;;;;;;;;4904941;29;19922;-77
2022/01/24 10:32:29;;;;;;;;;;;;;;;;;;4905260;29;19930;-77
2022/01/24 10:34:55;;;;;;;;;;;;;;;;;;4916889;29;19928;-77
2022/01/24 10:37:21;;;;;;;;;;;;;;;;;;4922342;29;19929;-78
2022/01/24 10:39:56;;;;;;;;;;;;;;;;;;4925780;29;19926;-77
2022/01/24 10:44:48;;;;;;;;;;;;;;;;;;4922793;29;20386;-76
2022/01/24 10:47:14;;;;;;;;;;;;;;;;;;4920791;29;20258;-77
2022/01/24 10:49:40;;;;;;;;;;;;;;;;;;4918224;29;19922;-77
2022/01/24 10:52:06;;;;;;;;;;;;;;;;;;4917818;29;19945;-78
2022/01/24 10:54:32;;;;;;;;;;;;;;;;;;4936639;28;20020;-78
2022/01/24 10:56:58;;;;;;;;;;;;;;;;;;4924236;28;19923;-78
2022/01/24 10:59:25;;;;;;;;;;;;;;;;;;4937081;28;19923;-78
2022/01/24 11:01:51;;;;;;;;;;;;;;;;;;4924763;29;20026;-77
2022/01/24 11:04:17;;;;;;;;;;;;;;;;;;4921550;29;20402;-77
2022/01/24 11:06:43;;;;;;;;;;;;;;;;;;4923277;29;19984;-78
2022/01/24 11:09:09;;;;;;;;;;;;;;;;;;4926416;29;19922;-77
2022/01/24 11:11:35;;;;;;;;;;;;;;;;;;4930228;28;19929;-78
2022/01/24 11:14:01;;;;;;;;;;;;;;;;;;4919557;29;20425;-77
2022/01/24 11:16:27;;;;;;;;;;;;;;;;;;4919595;29;19949;-78
2022/01/24 11:18:53;;;;;;;;;;;;;;;;;;4923375;29;20433;-77
2022/01/24 11:21:19;;;;;;;;;;;;;;;;;;4920408;29;20029;-78
2022/01/24 11:23:45;;;;;;;;;;;;;;;;;;4924512;29;19976;-78
2022/01/24 11:26:11;;;;;;;;;;;;;;;;;;4916428;29;20005;-75
2022/01/24 11:28:37;;;;;;;;;;;;;;;;;;4926119;28;20453;-76
2022/01/24 11:31:03;;;;;;;;;;;;;;;;;;4906799;29;19946;-77
2022/01/24 11:33:29;;;;;;;;;;;;;;;;;;4936675;29;19958;-77
2022/01/24 11:35:55;;;;;;;;;;;;;;;;;;4939862;29;19989;-77
2022/01/24 11:38:21;;;;;;;;;;;;;;;;;;4934348;29;19923;-78
2022/01/24 11:40:47;;;;;;;;;;;;;;;;;;4925270;29;20223;-77
2022/01/24 11:43:13;;;;;;;;;;;;;;;;;;4905374;29;19937;-76
2022/01/24 11:45:56;;;;;;;;;;;;;;;;;;4922423;29;19922;-76
2022/01/24 11:48:22;;;;;;;;;;;;;;;;;;4941589;29;20320;-77
2022/01/24 11:50:48;;;;;;;;;;;;;;;;;;4920588;29;20021;-77
2022/01/24 11:53:14;;;;;;;;;;;;;;;;;;4940515;29;20409;-73
2022/01/24 11:55:40;;;;;;;;;;;;;;;;;;4925110;29;19989;-73
2022/01/24 11:58:06;;;;;;;;;;;;;;;;;;4937690;29;19937;-74
2022/01/24 12:00:37;;;;;;;;;;;;;;;;;;4920675;28;19931;-73
2022/01/24 12:03:03;;;;;;;;;;;;;;;;;;4909558;28;20012;-74
2022/01/24 12:05:29;;;;;;;;;;;;;;;;;;4904416;29;20014;-74
2022/01/24 12:07:58;;;;;;;;;;;;;;;;;;4904568;29;19985;-73
2022/01/24 12:10:25;;;;;;;;;;;;;;;;;;4922072;29;20301;-73
2022/01/24 12:12:51;;;;;;;;;;;;;;;;;;4928139;29;19963;-74
2022/01/24 12:15:17;;;;;;;;;;;;;;;;;;4911718;29;20009;-75
2022/01/24 12:17:43;;;;;;;;;;;;;;;;;;4925751;29;20318;-73
2022/01/24 12:20:09;;;;;;;;;;;;;;;;;;4923817;29;19945;-75
2022/01/24 12:22:35;;;;;;;;;;;;;;;;;;4944377;28;19937;-74
2022/01/24 12:25:01;;;;;;;;;;;;;;;;;;4924684;29;19969;-74
2022/01/24 12:27:27;;;;;;;;;;;;;;;;;;4928221;29;19937;-74
2022/01/24 12:29:56;;;;;;;;;;;;;;;;;;4922771;29;20463;-74
2022/01/24 12:32:22;;;;;;;;;;;;;;;;;;4924762;29;19931;-75
2022/01/24 12:34:48;;;;;;;;;;;;;;;;;;4938879;29;19993;-74
2022/01/24 12:37:14;;;;;;;;;;;;;;;;;;4921206;29;19973;-74
2022/01/24 12:39:45;;;;;;;;;;;;;;;;;;4939922;29;20334;-73
2022/01/24 12:42:15;;;;;;;;;;;;;;;;;;4918744;29;19985;-73
2022/01/24 12:47:07;;;;;;;;;;;;;;;;;;4944582;29;20362;-76
2022/01/24 12:49:33;;;;;;;;;;;;;;;;;;4918947;29;19941;-79
2022/01/24 12:51:59;;;;;;;;;;;;;;;;;;4916738;29;20426;-75
2022/01/24 12:54:24;;;;;;;;;;;;;;;;;;4936457;29;19947;-75
2022/01/24 12:56:50;;;;;;;;;;;;;;;;;;4934953;29;20160;-76
2022/01/24 12:59:16;;;;;;;;;;;;;;;;;;4907038;29;19926;-75
2022/01/24 13:01:42;;;;;;;;;;;;;;;;;;4921629;29;19922;-75
2022/01/24 13:04:10;;;;;;;;;;;;;;;;;;4905073;29;19929;-74
2022/01/24 13:06:36;;;;;;;;;;;;;;;;;;4933115;29;19922;-75
2022/01/24 13:09:02;;;;;;;;;;;;;;;;;;4918626;29;19930;-76
2022/01/24 13:11:29;;;;;;;;;;;;;;;;;;4904933;29;19923;-76
2022/01/24 13:13:55;;;;;;;;;;;;;;;;;;4908339;29;19936;-75
2022/01/24 13:22:04;;;;;;;;;;;;;;;;;;4913885;29;20355;-75
2022/01/24 13:24:30;;;;;;;;;;;;;;;;;;4931255;29;19930;-75
2022/01/24 13:26:56;;;;;;;;;;;;;;;;;;4921686;29;19990;-76
2022/01/24 13:29:22;;;;;;;;;;;;;;;;;;4905394;29;19922;-77
2022/01/24 13:31:48;;;;;;;;;;;;;;;;;;4940915;29;19931;-77
2022/01/24 13:34:14;;;;;;;;;;;;;;;;;;4925184;29;19954;-78
2022/01/24 13:36:40;;;;;;;;;;;;;;;;;;4924749;29;19929;-75
2022/01/24 13:39:06;;;;;;;;;;;;;;;;;;4925595;29;20338;-77
2022/01/24 13:41:32;;;;;;;;;;;;;;;;;;4927694;29;20029;-75
2022/01/24 13:44:00;;;;;;;;;;;;;;;;;;4924182;29;20650;-78
2022/01/24 13:46:26;;;;;;;;;;;;;;;;;;4921852;29;20286;-76
2022/01/24 13:48:52;;;;;;;;;;;;;;;;;;4924019;29;20862;-80
2022/01/24 13:51:18;;;;;;;;;;;;;;;;;;4908684;29;19942;-78
2022/01/24 13:53:44;;;;;;;;;;;;;;;;;;4922178;29;19926;-78
2022/01/24 13:56:10;;;;;;;;;;;;;;;;;;4925635;29;19962;-78
2022/01/24 13:58:36;;;;;;;;;;;;;;;;;;4941086;29;20005;-77
2022/01/24 14:01:02;;;;;;;;;;;;;;;;;;4925270;29;19930;-77
2022/01/24 14:03:28;;;;;;;;;;;;;;;;;;4921197;29;20010;-78
2022/01/24 14:05:54;;;;;;;;;;;;;;;;;;4910697;29;19930;-79
2022/01/24 14:08:20;;;;;;;;;;;;;;;;;;4926755;29;19945;-76
2022/01/24 14:10:46;;;;;;;;;;;;;;;;;;4930782;29;20060;-76
2022/01/24 14:13:12;;;;;;;;;;;;;;;;;;4939210;29;19941;-75
2022/01/24 14:16:04;;;;;;;;;;;;;;;;;;4922653;29;20049;-77
2022/01/24 14:18:31;;;;;;;;;;;;;;;;;;4922792;29;19946;-77
2022/01/24 14:20:57;;;;;;;;;;;;;;;;;;4921203;29;20005;-78
2022/01/24 14:23:23;;;;;;;;;;;;;;;;;;4920427;29;19918;-78
2022/01/24 14:25:49;;;;;;;;;;;;;;;;;;4920418;29;19938;-78
2022/01/24 14:28:15;;;;;;;;;;;;;;;;;;4919531;29;20385;-78
2022/01/24 14:30:42;;;;;;;;;;;;;;;;;;4918661;29;19922;-78
2022/01/24 14:33:12;;;;;;;;;;;;;;;;;;4908259;29;20265;-78
2022/01/24 14:35:38;;;;;;;;;;;;;;;;;;4922748;29;19974;-78
2022/01/24 14:38:04;;;;;;;;;;;;;;;;;;4921745;29;19919;-78
2022/01/24 14:40:30;;;;;;;;;;;;;;;;;;4922802;29;19982;-78
2022/01/24 14:44:52;;;;;;;;;;;;;;;;;;4938239;29;20328;-78
2022/01/24 14:45:42;;;;;;;;;;;;;;;;;;4923664;29;20030;-77
2022/01/24 14:48:07;;;;;;;;;;;;;;;;;;4937268;29;20368;-79
2022/01/24 14:50:33;;;;;;;;;;;;;;;;;;4920601;29;20266;-78
2022/01/24 14:53:03;;;;;;;;;;;;;;;;;;4921691;29;20006;-79
2022/01/24 14:55:29;;;;;;;;;;;;;;;;;;4922853;29;19989;-78
2022/01/24 14:57:55;;;;;;;;;;;;;;;;;;4924423;29;20032;-79
2022/01/24 15:00:21;;;;;;;;;;;;;;;;;;4924097;29;19923;-78
2022/01/24 15:02:47;;;;;;;;;;;;;;;;;;4920429;28;19980;-78
2022/01/24 15:05:13;;;;;;;;;;;;;;;;;;4903656;29;19965;-80
2022/01/24 15:07:39;;;;;;;;;;;;;;;;;;4912804;29;19930;-78
2022/01/24 15:10:06;;;;;;;;;;;;;;;;;;4925273;29;19926;-75
2022/01/24 15:12:34;;;;;;;;;;;;;;;;;;4904753;29;19949;-77
2022/01/24 15:15:02;;;;;;;;;;;;;;;;;;4916773;28;19970;-88
2022/01/24 15:23:55;;;;;;;;;;;;;;;;;;4914419;29;19922;-74
2022/01/24 15:25:55;;;;;;;;;;;;;;;;;;4930632;29;19967;-74
2022/01/24 15:28:21;;;;;;;;;;;;;;;;;;4934540;29;20446;-75
2022/01/24 15:30:47;;;;;;;;;;;;;;;;;;4936716;29;20021;-77
2022/01/24 15:33:14;;;;;;;;;;;;;;;;;;4901420;29;19926;-77
2022/01/24 15:35:40;;;;;;;;;;;;;;;;;;4906446;29;19922;-76
2022/01/24 15:38:06;;;;;;;;;;;;;;;;;;4921654;29;19972;-76
2022/01/24 15:40:32;;;;;;;;;;;;;;;;;;4914400;29;19969;-76
2022/01/24 15:43:06;;;;;;;;;;;;;;;;;;4922382;29;19978;-82
2022/01/24 15:45:38;;;;;;;;;;;;;;;;;;4903615;29;20430;-80
2022/01/24 15:48:04;;;;;;;;;;;;;;;;;;4917636;29;19930;-75
2022/01/24 15:50:30;;;;;;;;;;;;;;;;;;4922424;29;19922;-77
2022/01/24 15:52:58;;;;;;;;;;;;;;;;;;4919574;29;19929;-74
2022/01/24 15:55:28;;;;;;;36.35;22.48;;;;;;;;;;4922443;28;20281;-80
2022/01/24 15:57:55;;;;;;;42.25;24.52;;;;;;;;;;4908569;29;20102;-73
2022/01/24 16:00:21;;;;;;;38.35;24.52;;;;;;;;;;4921773;29;20137;-77
2022/01/24 16:02:49;;;;;;;40.03;24.40;;;;;;;;;;4931297;28;20387;-77
2022/01/24 16:05:16;;;;;;;40.67;24.65;;;;;;;;;;4923174;29;20118;-81
2022/01/24 16:07:42;;;;;;;40.53;25.33;;;;;;;;;;4905551;29;20138;-75
2022/01/24 16:10:16;;;;;;;42.28;26.80;;;;;;;;;;4925681;29;20055;-76
2022/01/24 16:12:44;;;;;;;38.35;24.45;;;;;;;;;;4934138;29;20063;-76
2022/01/24 16:15:11;;;;;;;38.30;24.92;;;;;;;;;;4939552;29;20142;-76
2022/01/24 16:17:38;;;;;;;39.58;24.85;;;;;;;;;;4928855;29;20059;-77
2022/01/24 16:20:19;;;;;;;44.42;27.05;;;;;;;;;;4903461;28;20043;-75
2022/01/24 16:22:58;;;;;;;42.40;26.15;;;;;;;;;;4934796;29;20135;-75
2022/01/24 16:25:34;;;;;;;43.30;27.05;;;;;;;;;;4921465;29;20062;-76
2022/01/24 16:28:05;;;;;;;47.28;27.50;;;;;;;;;;4939969;29;20058;-76
2022/01/24 16:30:31;;;;;;;43.17;25.92;;;;;;;;;;4938364;29;20043;-77
2022/01/24 16:32:58;;;;;;;48.88;27.80;;;;;;;;;;4915476;28;20055;-78
2022/01/24 16:35:24;;;;;;;49.92;28.95;;;;;;;;;;4916219;29;20098;-77
2022/01/24 16:37:51;;;;;;;49.55;29.30;;;;;;;;;;4937476;28;20173;-78
2022/01/24 16:40:25;;;;;;;50.72;28.75;;;;;;;;;;4921811;29;20055;-79
2022/01/24 16:43:44;;;;;;;46.15;29.23;;;;;;;;;;4940217;28;20130;-76
2022/01/24 16:48:23;;;;;;;47.20;29.00;;;;;;;;;;4942822;29;20047;-77
2022/01/24 16:50:50;;;;;;;50.38;30.20;;;;;;;;;;4941115;29;20058;-77
2022/01/24 16:53:18;;;;;;;51.53;30.20;;;;;;;;;;4940338;28;20101;-76
2022/01/24 16:55:45;;;;;;;48.63;28.38;;;;;;;;;;4947971;28;20055;-77
2022/01/24 16:58:11;;;;;;;46.17;28.67;;;;;;;;;;4911705;29;20498;-75
2022/01/24 17:00:37;;;;;;;44.15;27.92;;;;;;;;;;4927003;29;20079;-78
2022/01/24 17:03:04;;;;;;;46.33;28.05;;;;;;;;;;4907675;28;20514;-77
2022/01/24 17:05:30;;;;;;;48.50;29.67;;;;;;;;;;4920984;29;20059;-77
2022/01/24 17:07:56;;;;;;;44.80;28.20;;;;;;;;;;4920890;29;20508;-77
2022/01/24 17:10:23;;;;;;;51.85;31.33;;;;;;;;;;4905135;29;20150;-74
2022/01/24 17:12:49;;;;;;;47.45;29.88;;;;;;;;;;4919919;29;20154;-74
2022/01/24 17:15:18;;;;;;;47.85;29.48;;;;;;;;;;4937599;28;20494;-75
2022/01/24 17:17:45;;;;;;;48.85;29.52;;;;;;;;;;4940031;28;20095;-76
2022/01/24 17:20:11;;;;;;;47.10;29.92;;;;;;;;;;4927841;29;20511;-76
2022/01/24 17:22:37;;;;;;;54.17;31.50;;;;;;;;;;4908562;29;20048;-80
2022/01/24 17:25:04;;;;;;;52.15;31.17;;;;;;;;;;4907763;29;20140;-75
2022/01/24 17:27:30;;;;;;;54.22;32.45;;;;;;;;;;4923585;29;20047;-73
2022/01/24 17:29:56;;;;;;;46.15;29.35;;;;;;;;;;4929187;29;20047;-75
2022/01/24 17:32:22;;;;;;;48.70;30.40;;;;;;;;;;4922113;29;20055;-76
2022/01/24 17:34:48;;;;;;;46.25;28.77;;;;;;;;;;4919679;29;20091;-76
2022/01/24 17:37:14;;;;;;;48.67;29.88;;;;;;;;;;4937793;28;20051;-75
2022/01/24 17:39:40;;;;;;;54.72;30.80;;;;;;;;;;4939378;29;20058;-75
2022/01/24 17:42:07;;;;;;;51.65;31.08;;;;;;;;;;4909406;29;20035;-75
2022/01/24 17:44:34;;;;;;;51.85;30.92;;;;;;;;;;4936991;29;20110;-75
2022/01/24 17:47:00;;;;;;;53.10;31.23;;;;;;;;;;4923303;29;20039;-75
2022/01/24 17:49:26;;;;;;;51.42;29.25;;;;;;;;;;4921448;29;20059;-76
2022/01/24 17:51:52;;;;;;;54.17;33.17;;;;;;;;;;4925647;29;20035;-76
2022/01/24 17:54:18;;;;;;;54.10;32.83;;;;;;;;;;4918521;29;20142;-76
2022/01/24 17:56:48;;;;;;;50.55;32.03;;;;;;;;;;4941947;28;20126;-75
2022/01/24 17:59:14;;;;;;;56.53;34.28;;;;;;;;;;4922280;29;20419;-78
2022/01/24 18:01:40;;;;;;;52.33;32.15;;;;;;;;;;4939642;29;20044;-77
2022/01/24 18:04:07;;;;;;;58.17;34.78;;;;;;;;;;4942517;28;20056;-84
2022/01/24 18:06:35;;;;;;;55.10;33.78;;;;;;;;;;4926506;29;20053;-77
2022/01/24 18:09:03;;;;;;;59.75;35.20;;;;;;;;;;4923647;29;20415;-80
2022/01/24 18:11:29;;;;;;;59.03;35.88;;;;;;;;;;4943774;28;20562;-81